sensor_id;sensor_type;location;lat;lon;timestamp;pressure;altitude;pressure_sealevel;temperature;humidity
6464;BME280;3265;42.694;23.282;2022-10-16T00:00:09;95306.91;;;9.01;100.00
6464;BME280;3265;42.694;23.282;2022-10-16T00:02:37;95313.31;;;9.12;100.00
6464;BME280;3265;42.694;23.282;2022-10-16T00:05:04;95316.34;;;9.16;100.00
6464;BME280;3265;42.694;23.282;2022-10-16T00:07:31;95322.94;;;9.18;100.00
6464;BME280;3265;42.694;23.282;2022-10-16T00:09:58;95317.97;;;9.23;100.00
6464;BME280;3265;42.694;23.282;2022-10-16T00:12:25;95322.97;;;9.25;100.00
6464;BME280;3265;42.694;23.282;2022-10-16T00:14:52;95326.75;;;9.22;100.00
6464;BME280;3265;42.694;23.282;2022-10-16T00:17:19;95321.75;;;9.21;100.00
6464;BME280;3265;42.694;23.282;2022-10-16T00:19:47;95313.31;;;9.12;100.00
6464;BME280;3265;42.694;23.282;2022-10-16T00:22:14;95322.16;;;9.18;100.00
6464;BME280;3265;42.694;23.282;2022-10-16T00:24:41;95329.09;;;9.10;100.00
6464;BME280;3265;42.694;23.282;2022-10-16T00:27:07;95327.41;;;8.96;100.00
6464;BME280;3265;42.694;23.282;2022-10-16T00:29:34;95324.97;;;8.88;100.00
6464;BME280;3265;42.694;23.282;2022-10-16T00:32:01;95331.16;;;8.87;100.00
6464;BME280;3265;42.694;23.282;2022-10-16T00:34:28;95332.41;;;8.98;100.00
6464;BME280;3265;42.694;23.282;2022-10-16T00:36:56;95332.81;;;9.01;100.00
6464;BME280;3265;42.694;23.282;2022-10-16T00:39:23;95338.84;;;9.08;100.00
6464;BME280;3265;42.694;23.282;2022-10-16T00:41:50;95337.94;;;8.88;100.00
6464;BME280;3265;42.694;23.282;2022-10-16T00:44:43;95329.13;;;8.55;100.00
6464;BME280;3265;42.694;23.282;2022-10-16T00:47:17;95333.16;;;8.15;100.00
6464;BME280;3265;42.694;23.282;2022-10-16T00:49:46;95326.81;;;8.18;100.00
6464;BME280;3265;42.694;23.282;2022-10-16T00:52:16;95313.19;;;8.09;100.00
6464;BME280;3265;42.694;23.282;2022-10-16T00:54:45;95324.16;;;8.11;100.00
6464;BME280;3265;42.694;23.282;2022-10-16T00:57:13;95324.38;;;8.10;100.00
6464;BME280;3265;42.694;23.282;2022-10-16T00:59:41;95321.09;;;8.22;100.00
6464;BME280;3265;42.694;23.282;2022-10-16T01:02:13;95329.38;;;8.32;100.00
6464;BME280;3265;42.694;23.282;2022-10-16T01:04:43;95332.00;;;8.39;100.00
6464;BME280;3265;42.694;23.282;2022-10-16T01:07:16;95332.16;;;8.59;100.00
6464;BME280;3265;42.694;23.282;2022-10-16T01:09:57;95338.59;;;8.69;100.00
6464;BME280;3265;42.694;23.282;2022-10-16T01:12:33;95338.41;;;8.71;100.00
6464;BME280;3265;42.694;23.282;2022-10-16T01:15:08;95335.97;;;8.63;100.00
6464;BME280;3265;42.694;23.282;2022-10-16T01:17:41;95336.22;;;8.68;100.00
6464;BME280;3265;42.694;23.282;2022-10-16T01:20:14;95336.00;;;8.69;100.00
6464;BME280;3265;42.694;23.282;2022-10-16T01:22:56;95329.84;;;8.70;100.00
6464;BME280;3265;42.694;23.282;2022-10-16T01:25:34;95317.09;;;8.75;100.00
6464;BME280;3265;42.694;23.282;2022-10-16T01:28:07;95318.63;;;8.63;100.00
6464;BME280;3265;42.694;23.282;2022-10-16T01:30:36;95324.59;;;8.57;100.00
6464;BME280;3265;42.694;23.282;2022-10-16T01:33:10;95319.56;;;8.55;100.00
6464;BME280;3265;42.694;23.282;2022-10-16T01:35:43;95332.53;;;8.55;100.00
6464;BME280;3265;42.694;23.282;2022-10-16T01:38:15;95327.56;;;8.54;100.00
6464;BME280;3265;42.694;23.282;2022-10-16T01:40:46;95326.63;;;8.40;100.00
6464;BME280;3265;42.694;23.282;2022-10-16T01:43:19;95324.28;;;8.03;100.00
6464;BME280;3265;42.694;23.282;2022-10-16T01:45:48;95331.19;;;7.75;100.00
6464;BME280;3265;42.694;23.282;2022-10-16T01:48:18;95333.28;;;7.86;100.00
6464;BME280;3265;42.694;23.282;2022-10-16T01:50:52;95321.97;;;7.87;100.00
6464;BME280;3265;42.694;23.282;2022-10-16T01:53:22;95329.09;;;8.06;100.00
6464;BME280;3265;42.694;23.282;2022-10-16T01:55:50;95334.59;;;8.18;100.00
6464;BME280;3265;42.694;23.282;2022-10-16T01:58:20;95339.63;;;8.26;100.00
6464;BME280;3265;42.694;23.282;2022-10-16T02:00:48;95337.34;;;8.31;100.00
6464;BME280;3265;42.694;23.282;2022-10-16T02:03:18;95343.91;;;8.33;100.00
6464;BME280;3265;42.694;23.282;2022-10-16T02:05:47;95328.19;;;8.35;100.00
6464;BME280;3265;42.694;23.282;2022-10-16T02:08:16;95339.41;;;8.42;100.00
6464;BME280;3265;42.694;23.282;2022-10-16T02:10:43;95342.00;;;8.42;100.00
6464;BME280;3265;42.694;23.282;2022-10-16T02:13:13;95342.38;;;8.39;100.00
6464;BME280;3265;42.694;23.282;2022-10-16T02:15:43;95344.53;;;8.35;100.00
6464;BME280;3265;42.694;23.282;2022-10-16T02:18:11;95353.91;;;8.36;100.00
6464;BME280;3265;42.694;23.282;2022-10-16T02:20:45;95363.09;;;8.39;100.00
6464;BME280;3265;42.694;23.282;2022-10-16T02:23:19;95357.53;;;8.42;100.00
6464;BME280;3265;42.694;23.282;2022-10-16T02:25:50;95362.06;;;8.33;100.00
6464;BME280;3265;42.694;23.282;2022-10-16T02:28:22;95361.63;;;8.30;100.00
6464;BME280;3265;42.694;23.282;2022-10-16T02:30:56;95366.59;;;8.31;100.00
6464;BME280;3265;42.694;23.282;2022-10-16T02:33:25;95366.41;;;8.33;100.00
6464;BME280;3265;42.694;23.282;2022-10-16T02:35:54;95364.81;;;8.32;100.00
6464;BME280;3265;42.694;23.282;2022-10-16T02:38:21;95360.19;;;8.27;100.00
6464;BME280;3265;42.694;23.282;2022-10-16T02:40:50;95359.72;;;8.24;100.00
6464;BME280;3265;42.694;23.282;2022-10-16T02:43:17;95368.19;;;8.32;100.00
6464;BME280;3265;42.694;23.282;2022-10-16T02:45:44;95369.50;;;7.86;100.00
6464;BME280;3265;42.694;23.282;2022-10-16T02:48:12;95380.59;;;7.44;100.00
6464;BME280;3265;42.694;23.282;2022-10-16T02:50:40;95384.63;;;7.32;100.00
6464;BME280;3265;42.694;23.282;2022-10-16T02:53:07;95378.53;;;7.39;100.00
6464;BME280;3265;42.694;23.282;2022-10-16T02:55:33;95386.63;;;7.51;100.00
6464;BME280;3265;42.694;23.282;2022-10-16T02:58:00;95381.34;;;7.59;100.00
6464;BME280;3265;42.694;23.282;2022-10-16T03:00:27;95382.25;;;7.66;100.00
6464;BME280;3265;42.694;23.282;2022-10-16T03:02:54;95391.13;;;7.78;100.00
6464;BME280;3265;42.694;23.282;2022-10-16T03:05:22;95386.22;;;7.83;100.00
6464;BME280;3265;42.694;23.282;2022-10-16T03:07:49;95382.34;;;7.94;100.00
6464;BME280;3265;42.694;23.282;2022-10-16T03:10:18;95388.63;;;8.06;100.00
6464;BME280;3265;42.694;23.282;2022-10-16T03:12:44;95376.50;;;8.07;100.00
6464;BME280;3265;42.694;23.282;2022-10-16T03:15:11;95389.31;;;8.15;100.00
6464;BME280;3265;42.694;23.282;2022-10-16T03:17:38;95383.34;;;8.14;100.00
6464;BME280;3265;42.694;23.282;2022-10-16T03:20:06;95392.09;;;8.13;100.00
6464;BME280;3265;42.694;23.282;2022-10-16T03:22:34;95387.81;;;8.06;100.00
6464;BME280;3265;42.694;23.282;2022-10-16T03:25:01;95386.94;;;8.13;100.00
6464;BME280;3265;42.694;23.282;2022-10-16T03:27:28;95390.25;;;8.07;100.00
6464;BME280;3265;42.694;23.282;2022-10-16T03:29:55;95401.41;;;8.08;100.00
6464;BME280;3265;42.694;23.282;2022-10-16T03:32:22;95398.47;;;8.11;100.00
6464;BME280;3265;42.694;23.282;2022-10-16T03:34:50;95404.00;;;8.08;100.00
6464;BME280;3265;42.694;23.282;2022-10-16T03:37:18;95395.66;;;8.12;100.00
6464;BME280;3265;42.694;23.282;2022-10-16T03:39:46;95399.00;;;8.06;100.00
6464;BME280;3265;42.694;23.282;2022-10-16T03:42:13;95397.28;;;8.13;100.00
6464;BME280;3265;42.694;23.282;2022-10-16T03:44:40;95402.38;;;7.71;100.00
6464;BME280;3265;42.694;23.282;2022-10-16T03:47:06;95398.00;;;7.21;100.00
6464;BME280;3265;42.694;23.282;2022-10-16T03:49:33;95394.78;;;6.90;100.00
6464;BME280;3265;42.694;23.282;2022-10-16T03:52:00;95388.25;;;6.94;100.00
6464;BME280;3265;42.694;23.282;2022-10-16T03:54:27;95389.44;;;7.06;100.00
6464;BME280;3265;42.694;23.282;2022-10-16T03:56:55;95394.16;;;7.17;100.00
6464;BME280;3265;42.694;23.282;2022-10-16T03:59:22;95378.03;;;7.29;100.00
6464;BME280;3265;42.694;23.282;2022-10-16T04:01:48;95390.03;;;7.37;100.00
6464;BME280;3265;42.694;23.282;2022-10-16T04:04:15;95390.13;;;7.43;100.00
6464;BME280;3265;42.694;23.282;2022-10-16T04:06:42;95400.72;;;7.49;100.00
6464;BME280;3265;42.694;23.282;2022-10-16T04:09:09;95400.56;;;7.50;100.00
6464;BME280;3265;42.694;23.282;2022-10-16T04:11:36;95393.66;;;7.57;100.00
6464;BME280;3265;42.694;23.282;2022-10-16T04:14:04;95396.50;;;7.62;100.00
6464;BME280;3265;42.694;23.282;2022-10-16T04:16:31;95391.63;;;7.67;100.00
6464;BME280;3265;42.694;23.282;2022-10-16T04:18:58;95396.59;;;7.69;100.00
6464;BME280;3265;42.694;23.282;2022-10-16T04:21:25;95388.03;;;7.68;100.00
6464;BME280;3265;42.694;23.282;2022-10-16T04:23:51;95402.22;;;7.72;100.00
6464;BME280;3265;42.694;23.282;2022-10-16T04:26:18;95390.09;;;7.73;100.00
6464;BME280;3265;42.694;23.282;2022-10-16T04:28:45;95407.28;;;7.80;100.00
6464;BME280;3265;42.694;23.282;2022-10-16T04:31:13;95406.59;;;7.72;100.00
6464;BME280;3265;42.694;23.282;2022-10-16T04:33:42;95393.66;;;7.57;100.00
6464;BME280;3265;42.694;23.282;2022-10-16T04:36:09;95411.59;;;7.73;100.00
6464;BME280;3265;42.694;23.282;2022-10-16T04:38:36;95400.63;;;7.42;100.00
6464;BME280;3265;42.694;23.282;2022-10-16T04:41:04;95410.19;;;6.98;100.00
6464;BME280;3265;42.694;23.282;2022-10-16T04:43:31;95399.53;;;6.63;100.00
6464;BME280;3265;42.694;23.282;2022-10-16T04:45:58;95406.22;;;6.72;100.00
6464;BME280;3265;42.694;23.282;2022-10-16T04:48:27;95407.81;;;6.73;100.00
6464;BME280;3265;42.694;23.282;2022-10-16T04:50:54;95411.59;;;6.85;100.00
6464;BME280;3265;42.694;23.282;2022-10-16T04:53:21;95417.03;;;6.91;100.00
6464;BME280;3265;42.694;23.282;2022-10-16T04:55:47;95419.81;;;7.04;100.00
6464;BME280;3265;42.694;23.282;2022-10-16T04:58:14;95425.00;;;7.18;100.00
6464;BME280;3265;42.694;23.282;2022-10-16T05:00:41;95440.66;;;7.17;100.00
6464;BME280;3265;42.694;23.282;2022-10-16T05:03:08;95433.47;;;7.27;100.00
6464;BME280;3265;42.694;23.282;2022-10-16T05:05:36;95429.53;;;7.31;100.00
6464;BME280;3265;42.694;23.282;2022-10-16T05:08:03;95434.97;;;7.36;100.00
6464;BME280;3265;42.694;23.282;2022-10-16T05:10:30;95439.06;;;7.45;100.00
6464;BME280;3265;42.694;23.282;2022-10-16T05:12:57;95439.16;;;7.52;100.00
6464;BME280;3265;42.694;23.282;2022-10-16T05:15:23;95442.00;;;7.57;100.00
6464;BME280;3265;42.694;23.282;2022-10-16T05:17:52;95444.44;;;7.58;100.00
6464;BME280;3265;42.694;23.282;2022-10-16T05:20:20;95444.44;;;7.58;100.00
6464;BME280;3265;42.694;23.282;2022-10-16T05:22:48;95447.81;;;7.59;100.00
6464;BME280;3265;42.694;23.282;2022-10-16T05:25:15;95447.19;;;7.57;100.00
6464;BME280;3265;42.694;23.282;2022-10-16T05:27:42;95451.88;;;7.68;100.00
6464;BME280;3265;42.694;23.282;2022-10-16T05:30:09;95451.38;;;7.58;100.00
6464;BME280;3265;42.694;23.282;2022-10-16T05:32:36;95456.66;;;7.50;100.00
6464;BME280;3265;42.694;23.282;2022-10-16T05:35:03;95456.75;;;7.41;100.00
6464;BME280;3265;42.694;23.282;2022-10-16T05:37:30;95459.94;;;7.29;100.00
6464;BME280;3265;42.694;23.282;2022-10-16T05:39:58;95450.63;;;7.05;100.00
6464;BME280;3265;42.694;23.282;2022-10-16T05:42:25;95449.63;;;6.77;100.00
6464;BME280;3265;42.694;23.282;2022-10-16T05:44:52;95448.72;;;6.84;100.00
6464;BME280;3265;42.694;23.282;2022-10-16T05:47:19;95451.53;;;6.98;100.00
6464;BME280;3265;42.694;23.282;2022-10-16T05:49:47;95456.72;;;7.12;100.00
6464;BME280;3265;42.694;23.282;2022-10-16T05:52:14;95461.72;;;7.28;100.00
6464;BME280;3265;42.694;23.282;2022-10-16T05:54:40;95464.84;;;7.38;100.00
6464;BME280;3265;42.694;23.282;2022-10-16T05:57:11;95475.22;;;7.53;100.00
6464;BME280;3265;42.694;23.282;2022-10-16T05:59:38;95481.72;;;7.64;100.00
6464;BME280;3265;42.694;23.282;2022-10-16T06:02:05;95481.59;;;7.72;100.00
6464;BME280;3265;42.694;23.282;2022-10-16T06:04:32;95486.97;;;7.85;100.00
6464;BME280;3265;42.694;23.282;2022-10-16T06:06:59;95484.06;;;7.94;100.00
6464;BME280;3265;42.694;23.282;2022-10-16T06:09:26;95496.53;;;8.06;100.00
6464;BME280;3265;42.694;23.282;2022-10-16T06:11:53;95479.44;;;8.05;100.00
6464;BME280;3265;42.694;23.282;2022-10-16T06:14:21;95492.94;;;8.21;100.00
6464;BME280;3265;42.694;23.282;2022-10-16T06:16:48;95498.75;;;8.23;100.00
6464;BME280;3265;42.694;23.282;2022-10-16T06:19:15;95505.81;;;8.29;100.00
6464;BME280;3265;42.694;23.282;2022-10-16T06:21:43;95502.06;;;8.32;100.00
6464;BME280;3265;42.694;23.282;2022-10-16T06:24:09;95495.91;;;8.33;100.00
6464;BME280;3265;42.694;23.282;2022-10-16T06:26:37;95494.72;;;8.35;100.00
6464;BME280;3265;42.694;23.282;2022-10-16T06:29:04;95498.81;;;8.44;100.00
6464;BME280;3265;42.694;23.282;2022-10-16T06:31:32;95508.69;;;8.55;100.00
6464;BME280;3265;42.694;23.282;2022-10-16T06:34:00;95515.66;;;8.34;100.00
6464;BME280;3265;42.694;23.282;2022-10-16T06:36:29;95514.25;;;8.02;100.00
6464;BME280;3265;42.694;23.282;2022-10-16T06:38:56;95510.22;;;7.99;100.00
6464;BME280;3265;42.694;23.282;2022-10-16T06:41:23;95520.38;;;8.16;100.00
6464;BME280;3265;42.694;23.282;2022-10-16T06:43:50;95517.50;;;8.25;100.00
6464;BME280;3265;42.694;23.282;2022-10-16T06:46:19;95526.06;;;8.40;100.00
6464;BME280;3265;42.694;23.282;2022-10-16T06:48:47;95525.22;;;8.54;100.00
6464;BME280;3265;42.694;23.282;2022-10-16T06:51:15;95533.00;;;8.76;100.00
6464;BME280;3265;42.694;23.282;2022-10-16T06:53:44;95541.91;;;8.88;100.00
6464;BME280;3265;42.694;23.282;2022-10-16T06:56:14;95540.97;;;8.95;100.00
6464;BME280;3265;42.694;23.282;2022-10-16T06:58:42;95540.06;;;9.03;100.00
6464;BME280;3265;42.694;23.282;2022-10-16T07:01:10;95535.28;;;9.06;100.00
6464;BME280;3265;42.694;23.282;2022-10-16T07:03:37;95550.53;;;9.16;100.00
6464;BME280;3265;42.694;23.282;2022-10-16T07:06:08;95535.84;;;9.23;100.00
6464;BME280;3265;42.694;23.282;2022-10-16T07:08:37;95539.84;;;9.26;100.00
6464;BME280;3265;42.694;23.282;2022-10-16T07:11:06;95542.91;;;9.36;100.00
6464;BME280;3265;42.694;23.282;2022-10-16T07:13:33;95542.16;;;9.42;100.00
6464;BME280;3265;42.694;23.282;2022-10-16T07:16:04;95543.25;;;9.54;100.00
6464;BME280;3265;42.694;23.282;2022-10-16T07:18:31;95540.06;;;9.58;100.00
6464;BME280;3265;42.694;23.282;2022-10-16T07:21:03;95537.28;;;9.60;100.00
6464;BME280;3265;42.694;23.282;2022-10-16T07:23:31;95537.09;;;9.61;100.00
6464;BME280;3265;42.694;23.282;2022-10-16T07:25:58;95532.53;;;9.63;100.00
6464;BME280;3265;42.694;23.282;2022-10-16T07:28:25;95546.81;;;9.81;100.00
6464;BME280;3265;42.694;23.282;2022-10-16T07:30:51;95547.84;;;9.86;100.00
6464;BME280;3265;42.694;23.282;2022-10-16T07:33:18;95556.06;;;9.90;100.00
6464;BME280;3265;42.694;23.282;2022-10-16T07:35:49;95540.66;;;9.88;100.00
6464;BME280;3265;42.694;23.282;2022-10-16T07:38:16;95548.03;;;9.85;100.00
6464;BME280;3265;42.694;23.282;2022-10-16T07:40:45;95548.72;;;9.65;100.00
6464;BME280;3265;42.694;23.282;2022-10-16T07:43:12;95547.53;;;9.40;100.00
6464;BME280;3265;42.694;23.282;2022-10-16T07:45:46;95543.66;;;9.57;100.00
6464;BME280;3265;42.694;23.282;2022-10-16T07:48:14;95546.34;;;9.70;100.00
6464;BME280;3265;42.694;23.282;2022-10-16T07:50:41;95552.84;;;9.88;100.00
6464;BME280;3265;42.694;23.282;2022-10-16T07:53:08;95555.34;;;10.09;100.00
6464;BME280;3265;42.694;23.282;2022-10-16T07:55:35;95556.84;;;10.24;100.00
6464;BME280;3265;42.694;23.282;2022-10-16T07:58:03;95556.69;;;10.39;100.00
6464;BME280;3265;42.694;23.282;2022-10-16T08:00:30;95565.38;;;10.53;100.00
6464;BME280;3265;42.694;23.282;2022-10-16T08:02:57;95565.41;;;10.66;100.00
6464;BME280;3265;42.694;23.282;2022-10-16T08:05:25;95561.84;;;10.73;100.00
6464;BME280;3265;42.694;23.282;2022-10-16T08:07:53;95562.63;;;10.80;100.00
6464;BME280;3265;42.694;23.282;2022-10-16T08:10:21;95571.06;;;10.89;99.58
6464;BME280;3265;42.694;23.282;2022-10-16T08:12:48;95563.69;;;11.06;98.65
6464;BME280;3265;42.694;23.282;2022-10-16T08:15:17;95560.31;;;11.18;98.73
6464;BME280;3265;42.694;23.282;2022-10-16T08:17:44;95557.31;;;11.34;98.29
6464;BME280;3265;42.694;23.282;2022-10-16T08:20:11;95559.50;;;11.57;96.45
6464;BME280;3265;42.694;23.282;2022-10-16T08:22:38;95556.53;;;11.73;95.74
6464;BME280;3265;42.694;23.282;2022-10-16T08:25:05;95561.09;;;11.91;95.42
6464;BME280;3265;42.694;23.282;2022-10-16T08:27:32;95566.84;;;12.13;95.38
6464;BME280;3265;42.694;23.282;2022-10-16T08:29:59;95557.41;;;12.18;93.07
6464;BME280;3265;42.694;23.282;2022-10-16T08:32:27;95551.44;;;12.18;92.79
6464;BME280;3265;42.694;23.282;2022-10-16T08:34:54;95545.41;;;12.17;93.83
6464;BME280;3265;42.694;23.282;2022-10-16T08:37:21;95560.66;;;12.65;92.60
6464;BME280;3265;42.694;23.282;2022-10-16T08:39:48;95552.81;;;13.09;90.66
6464;BME280;3265;42.694;23.282;2022-10-16T08:42:29;95554.19;;;13.68;87.60
6464;BME280;3265;42.694;23.282;2022-10-16T08:45:28;95557.22;;;14.26;84.96
6464;BME280;3265;42.694;23.282;2022-10-16T08:48:09;95558.66;;;14.76;81.69
6464;BME280;3265;42.694;23.282;2022-10-16T08:50:39;95564.72;;;15.18;79.78
6464;BME280;3265;42.694;23.282;2022-10-16T08:53:09;95567.78;;;15.68;78.61
6464;BME280;3265;42.694;23.282;2022-10-16T08:55:42;95568.03;;;15.66;77.02
6464;BME280;3265;42.694;23.282;2022-10-16T08:58:12;95566.06;;;15.50;76.61
6464;BME280;3265;42.694;23.282;2022-10-16T09:00:40;95571.53;;;15.19;78.25
6464;BME280;3265;42.694;23.282;2022-10-16T09:03:16;95575.66;;;15.68;76.91
6464;BME280;3265;42.694;23.282;2022-10-16T09:05:54;95575.53;;;16.32;74.30
6464;BME280;3265;42.694;23.282;2022-10-16T09:08:30;95581.91;;;16.99;71.70
6464;BME280;3265;42.694;23.282;2022-10-16T09:11:07;95583.03;;;17.48;66.81
6464;BME280;3265;42.694;23.282;2022-10-16T09:13:43;95576.44;;;17.96;64.48
6464;BME280;3265;42.694;23.282;2022-10-16T09:16:17;95577.38;;;18.45;62.63
6464;BME280;3265;42.694;23.282;2022-10-16T09:18:53;95577.69;;;18.87;60.65
6464;BME280;3265;42.694;23.282;2022-10-16T09:21:23;95576.19;;;19.22;58.92
6464;BME280;3265;42.694;23.282;2022-10-16T09:23:52;95571.72;;;19.45;58.24
6464;BME280;3265;42.694;23.282;2022-10-16T09:26:20;95576.25;;;19.86;57.08
6464;BME280;3265;42.694;23.282;2022-10-16T09:28:47;95579.66;;;20.23;55.66
6464;BME280;3265;42.694;23.282;2022-10-16T09:31:17;95589.72;;;20.63;54.56
6464;BME280;3265;42.694;23.282;2022-10-16T09:33:50;95593.03;;;21.01;53.67
6464;BME280;3265;42.694;23.282;2022-10-16T09:36:19;95592.28;;;21.10;52.10
6464;BME280;3265;42.694;23.282;2022-10-16T09:38:47;95588.94;;;20.26;52.70
6464;BME280;3265;42.694;23.282;2022-10-16T09:41:17;95585.03;;;19.11;56.39
6464;BME280;3265;42.694;23.282;2022-10-16T09:43:51;95570.69;;;18.76;58.20
6464;BME280;3265;42.694;23.282;2022-10-16T09:46:25;95582.28;;;19.50;56.38
6464;BME280;3265;42.694;23.282;2022-10-16T09:48:56;95578.28;;;20.11;54.22
6464;BME280;3265;42.694;23.282;2022-10-16T09:51:25;95572.06;;;20.84;52.87
6464;BME280;3265;42.694;23.282;2022-10-16T09:53:55;95573.84;;;21.66;50.38
6464;BME280;3265;42.694;23.282;2022-10-16T09:56:24;95572.50;;;22.39;49.23
6464;BME280;3265;42.694;23.282;2022-10-16T09:58:52;95560.66;;;22.90;50.73
6464;BME280;3265;42.694;23.282;2022-10-16T10:01:20;95571.22;;;23.49;50.74
6464;BME280;3265;42.694;23.282;2022-10-16T10:03:47;95584.38;;;23.98;50.19
6464;BME280;3265;42.694;23.282;2022-10-16T10:06:24;95577.84;;;24.48;44.84
6464;BME280;3265;42.694;23.282;2022-10-16T10:09:00;95574.81;;;25.02;45.15
6464;BME280;3265;42.694;23.282;2022-10-16T10:11:39;95581.38;;;25.52;42.48
6464;BME280;3265;42.694;23.282;2022-10-16T10:14:13;95577.81;;;25.75;45.84
6464;BME280;3265;42.694;23.282;2022-10-16T10:16:41;95571.31;;;26.00;39.58
6464;BME280;3265;42.694;23.282;2022-10-16T10:19:13;95576.31;;;26.20;43.22
6464;BME280;3265;42.694;23.282;2022-10-16T10:21:42;95576.66;;;26.46;43.42
6464;BME280;3265;42.694;23.282;2022-10-16T10:24:11;95588.00;;;26.65;38.19
6464;BME280;3265;42.694;23.282;2022-10-16T10:26:38;95582.41;;;26.94;39.21
6464;BME280;3265;42.694;23.282;2022-10-16T10:29:15;95575.56;;;26.74;36.76
6464;BME280;3265;42.694;23.282;2022-10-16T10:31:50;95581.91;;;27.05;37.04
6464;BME280;3265;42.694;23.282;2022-10-16T10:34:31;95566.38;;;27.21;38.58
6464;BME280;3265;42.694;23.282;2022-10-16T10:37:08;95580.47;;;27.49;39.22
6464;BME280;3265;42.694;23.282;2022-10-16T10:39:43;95566.22;;;27.76;35.46
6464;BME280;3265;42.694;23.282;2022-10-16T10:42:22;95562.44;;;27.99;33.60
6464;BME280;3265;42.694;23.282;2022-10-16T10:45:01;95559.25;;;28.10;35.34
6464;BME280;3265;42.694;23.282;2022-10-16T10:47:38;95560.03;;;28.42;34.47
6464;BME280;3265;42.694;23.282;2022-10-16T10:50:17;95555.63;;;28.46;35.40
6464;BME280;3265;42.694;23.282;2022-10-16T10:52:58;95556.75;;;28.84;33.78
6464;BME280;3265;42.694;23.282;2022-10-16T10:55:33;95554.91;;;29.02;32.45
6464;BME280;3265;42.694;23.282;2022-10-16T10:58:16;95552.03;;;28.90;32.75
6464;BME280;3265;42.694;23.282;2022-10-16T11:00:55;95554.41;;;28.91;32.76
6464;BME280;3265;42.694;23.282;2022-10-16T11:03:45;95556.31;;;28.99;31.77
6464;BME280;3265;42.694;23.282;2022-10-16T11:06:16;95561.19;;;28.97;31.98
6464;BME280;3265;42.694;23.282;2022-10-16T11:08:49;95553.66;;;29.16;31.39
6464;BME280;3265;42.694;23.282;2022-10-16T11:11:20;95546.31;;;29.31;32.83
6464;BME280;3265;42.694;23.282;2022-10-16T11:13:55;95542.03;;;29.55;31.34
6464;BME280;3265;42.694;23.282;2022-10-16T11:16:27;95552.28;;;29.70;31.03
6464;BME280;3265;42.694;23.282;2022-10-16T11:18:57;95550.41;;;29.45;30.86
6464;BME280;3265;42.694;23.282;2022-10-16T11:21:28;95541.91;;;29.60;29.97
6464;BME280;3265;42.694;23.282;2022-10-16T11:23:59;95540.47;;;29.71;31.57
6464;BME280;3265;42.694;23.282;2022-10-16T11:26:31;95543.31;;;29.58;29.62
6464;BME280;3265;42.694;23.282;2022-10-16T11:29:02;95541.38;;;29.15;30.88
6464;BME280;3265;42.694;23.282;2022-10-16T11:31:36;95534.31;;;29.28;31.49
6464;BME280;3265;42.694;23.282;2022-10-16T11:34:07;95525.97;;;29.38;30.85
6464;BME280;3265;42.694;23.282;2022-10-16T11:36:44;95529.59;;;29.42;29.51
6464;BME280;3265;42.694;23.282;2022-10-16T11:39:19;95539.53;;;29.67;30.82
6464;BME280;3265;42.694;23.282;2022-10-16T11:41:49;95540.03;;;29.87;29.89
6464;BME280;3265;42.694;23.282;2022-10-16T11:44:31;95539.81;;;30.00;29.60
6464;BME280;3265;42.694;23.282;2022-10-16T11:47:03;95544.09;;;30.01;28.19
6464;BME280;3265;42.694;23.282;2022-10-16T11:49:33;95547.03;;;30.17;27.57
6464;BME280;3265;42.694;23.282;2022-10-16T11:52:06;95538.31;;;30.28;28.83
6464;BME280;3265;42.694;23.282;2022-10-16T11:54:40;95535.78;;;30.32;28.53
6464;BME280;3265;42.694;23.282;2022-10-16T11:57:13;95538.78;;;30.39;27.79
6464;BME280;3265;42.694;23.282;2022-10-16T11:59:44;95537.53;;;30.28;27.55
6464;BME280;3265;42.694;23.282;2022-10-16T12:02:27;95531.72;;;30.26;28.75
6464;BME280;3265;42.694;23.282;2022-10-16T12:05:03;95539.66;;;30.05;28.84
6464;BME280;3265;42.694;23.282;2022-10-16T12:07:36;95535.53;;;30.16;27.89
6464;BME280;3265;42.694;23.282;2022-10-16T12:10:19;95537.44;;;30.16;27.64
6464;BME280;3265;42.694;23.282;2022-10-16T12:12:46;95533.09;;;30.49;27.86
6464;BME280;3265;42.694;23.282;2022-10-16T12:15:23;95539.09;;;30.46;27.53
6464;BME280;3265;42.694;23.282;2022-10-16T12:17:50;95529.78;;;30.44;27.61
6464;BME280;3265;42.694;23.282;2022-10-16T12:20:29;95534.94;;;30.57;25.70
6464;BME280;3265;42.694;23.282;2022-10-16T12:22:59;95535.84;;;30.70;25.60
6464;BME280;3265;42.694;23.282;2022-10-16T12:25:30;95540.91;;;30.92;25.80
6464;BME280;3265;42.694;23.282;2022-10-16T12:28:00;95540.00;;;30.97;25.00
6464;BME280;3265;42.694;23.282;2022-10-16T12:30:29;95539.47;;;31.03;25.79
6464;BME280;3265;42.694;23.282;2022-10-16T12:32:58;95535.06;;;30.99;26.44
6464;BME280;3265;42.694;23.282;2022-10-16T12:35:29;95545.84;;;31.19;26.50
6464;BME280;3265;42.694;23.282;2022-10-16T12:38:06;95543.47;;;31.18;27.12
6464;BME280;3265;42.694;23.282;2022-10-16T12:40:37;95540.28;;;31.24;25.60
6464;BME280;3265;42.694;23.282;2022-10-16T12:43:25;95541.78;;;31.13;25.30
6464;BME280;3265;42.694;23.282;2022-10-16T12:46:01;95542.72;;;31.59;24.95
6464;BME280;3265;42.694;23.282;2022-10-16T12:48:28;95546.88;;;32.10;24.78
6464;BME280;3265;42.694;23.282;2022-10-16T12:50:56;95545.16;;;32.50;24.13
6464;BME280;3265;42.694;23.282;2022-10-16T12:53:24;95546.84;;;32.42;23.47
6464;BME280;3265;42.694;23.282;2022-10-16T12:56:03;95546.41;;;32.52;23.39
6464;BME280;3265;42.694;23.282;2022-10-16T12:58:43;95550.34;;;32.67;23.23
6464;BME280;3265;42.694;23.282;2022-10-16T13:01:27;95552.53;;;33.10;22.01
6464;BME280;3265;42.694;23.282;2022-10-16T13:04:10;95559.25;;;32.92;22.15
6464;BME280;3265;42.694;23.282;2022-10-16T13:06:46;95563.84;;;33.03;22.34
6464;BME280;3265;42.694;23.282;2022-10-16T13:12:29;95566.09;;;33.01;23.11
6464;BME280;3265;42.694;23.282;2022-10-16T13:15:12;95555.31;;;33.13;23.63
6464;BME280;3265;42.694;23.282;2022-10-16T13:17:49;95555.00;;;32.34;23.31
6464;BME280;3265;42.694;23.282;2022-10-16T13:20:22;95552.72;;;32.24;22.13
6464;BME280;3265;42.694;23.282;2022-10-16T13:23:02;95553.75;;;32.19;23.69
6464;BME280;3265;42.694;23.282;2022-10-16T13:25:40;95557.03;;;32.37;23.12
6464;BME280;3265;42.694;23.282;2022-10-16T13:28:12;95554.25;;;32.45;22.71